sensor_id;sensor_type;location;lat;lon;timestamp;temperature;humidity
17639;DHT22;8938;53.546;9.954;2023-07-20T00:01:13;18.90;99.90
17639;DHT22;8938;53.546;9.954;2023-07-20T00:03:39;18.90;99.90
17639;DHT22;8938;53.546;9.954;2023-07-20T00:06:04;19.00;99.90
17639;DHT22;8938;53.546;9.954;2023-07-20T00:08:30;19.00;99.90
17639;DHT22;8938;53.546;9.954;2023-07-20T00:10:56;19.00;99.90
17639;DHT22;8938;53.546;9.954;2023-07-20T00:13:21;19.10;99.90
17639;DHT22;8938;53.546;9.954;2023-07-20T00:15:47;19.10;99.90
17639;DHT22;8938;53.546;9.954;2023-07-20T00:18:13;19.20;99.90
17639;DHT22;8938;53.546;9.954;2023-07-20T00:20:39;19.20;99.90
17639;DHT22;8938;53.546;9.954;2023-07-20T00:23:04;19.20;99.90
17639;DHT22;8938;53.546;9.954;2023-07-20T00:25:30;19.20;99.90
17639;DHT22;8938;53.546;9.954;2023-07-20T00:27:56;19.20;99.90
17639;DHT22;8938;53.546;9.954;2023-07-20T00:30:21;19.20;99.90
17639;DHT22;8938;53.546;9.954;2023-07-20T00:32:47;19.20;99.90
17639;DHT22;8938;53.546;9.954;2023-07-20T00:35:13;19.10;99.90
17639;DHT22;8938;53.546;9.954;2023-07-20T00:37:39;19.10;99.90
17639;DHT22;8938;53.546;9.954;2023-07-20T00:40:05;19.10;99.90
17639;DHT22;8938;53.546;9.954;2023-07-20T00:42:32;19.10;99.90
17639;DHT22;8938;53.546;9.954;2023-07-20T00:44:58;19.10;99.90
17639;DHT22;8938;53.546;9.954;2023-07-20T00:47:24;19.20;99.90
17639;DHT22;8938;53.546;9.954;2023-07-20T00:49:50;19.20;99.90
17639;DHT22;8938;53.546;9.954;2023-07-20T00:52:16;19.20;99.90
17639;DHT22;8938;53.546;9.954;2023-07-20T00:54:43;19.20;99.90
17639;DHT22;8938;53.546;9.954;2023-07-20T00:57:09;19.20;99.90
17639;DHT22;8938;53.546;9.954;2023-07-20T00:59:35;19.20;99.90
17639;DHT22;8938;53.546;9.954;2023-07-20T01:02:01;19.20;99.90
17639;DHT22;8938;53.546;9.954;2023-07-20T01:04:27;19.20;99.90
17639;DHT22;8938;53.546;9.954;2023-07-20T01:07:03;19.10;99.90
17639;DHT22;8938;53.546;9.954;2023-07-20T01:09:39;19.10;99.90
17639;DHT22;8938;53.546;9.954;2023-07-20T01:12:33;19.10;99.90
17639;DHT22;8938;53.546;9.954;2023-07-20T01:15:01;19.10;99.90
17639;DHT22;8938;53.546;9.954;2023-07-20T01:17:27;19.10;99.90
17639;DHT22;8938;53.546;9.954;2023-07-20T01:19:52;19.00;99.90
17639;DHT22;8938;53.546;9.954;2023-07-20T01:22:48;18.80;99.90
17639;DHT22;8938;53.546;9.954;2023-07-20T01:28:19;18.70;99.90
17639;DHT22;8938;53.546;9.954;2023-07-20T01:33:36;18.70;99.90
17639;DHT22;8938;53.546;9.954;2023-07-20T01:36:03;18.70;99.90
17639;DHT22;8938;53.546;9.954;2023-07-20T01:38:30;18.70;99.90
17639;DHT22;8938;53.546;9.954;2023-07-20T01:40:57;18.60;99.90
17639;DHT22;8938;53.546;9.954;2023-07-20T01:43:23;18.60;99.90
17639;DHT22;8938;53.546;9.954;2023-07-20T01:45:48;18.50;99.90
17639;DHT22;8938;53.546;9.954;2023-07-20T01:48:14;18.40;99.90
17639;DHT22;8938;53.546;9.954;2023-07-20T01:50:40;18.40;99.90
17639;DHT22;8938;53.546;9.954;2023-07-20T01:53:05;18.40;99.90
17639;DHT22;8938;53.546;9.954;2023-07-20T01:55:31;18.40;99.90
17639;DHT22;8938;53.546;9.954;2023-07-20T01:57:57;18.40;99.90
17639;DHT22;8938;53.546;9.954;2023-07-20T02:00:24;18.50;99.90
17639;DHT22;8938;53.546;9.954;2023-07-20T02:02:51;18.50;99.90
17639;DHT22;8938;53.546;9.954;2023-07-20T02:05:16;18.60;99.90
17639;DHT22;8938;53.546;9.954;2023-07-20T02:07:42;18.60;99.90
17639;DHT22;8938;53.546;9.954;2023-07-20T02:10:09;18.50;99.90
17639;DHT22;8938;53.546;9.954;2023-07-20T02:12:34;18.50;99.90
17639;DHT22;8938;53.546;9.954;2023-07-20T02:15:01;18.50;99.90
17639;DHT22;8938;53.546;9.954;2023-07-20T02:17:27;18.50;99.90
17639;DHT22;8938;53.546;9.954;2023-07-20T02:19:53;18.40;99.90
17639;DHT22;8938;53.546;9.954;2023-07-20T02:22:20;18.30;99.90
17639;DHT22;8938;53.546;9.954;2023-07-20T02:24:46;18.40;99.90
17639;DHT22;8938;53.546;9.954;2023-07-20T02:27:11;18.40;99.90
17639;DHT22;8938;53.546;9.954;2023-07-20T02:29:37;18.50;99.90
17639;DHT22;8938;53.546;9.954;2023-07-20T02:32:03;18.50;99.90
17639;DHT22;8938;53.546;9.954;2023-07-20T02:34:28;18.50;99.90
17639;DHT22;8938;53.546;9.954;2023-07-20T02:36:54;18.50;99.90
17639;DHT22;8938;53.546;9.954;2023-07-20T02:39:21;18.50;99.90
17639;DHT22;8938;53.546;9.954;2023-07-20T02:41:47;18.50;99.90
17639;DHT22;8938;53.546;9.954;2023-07-20T02:44:14;18.50;99.90
17639;DHT22;8938;53.546;9.954;2023-07-20T02:46:39;18.60;99.90
17639;DHT22;8938;53.546;9.954;2023-07-20T02:49:05;18.60;99.90
17639;DHT22;8938;53.546;9.954;2023-07-20T02:51:30;18.60;99.90
17639;DHT22;8938;53.546;9.954;2023-07-20T02:53:56;18.50;99.90
17639;DHT22;8938;53.546;9.954;2023-07-20T02:56:21;18.50;99.90
17639;DHT22;8938;53.546;9.954;2023-07-20T02:58:48;18.40;99.90
17639;DHT22;8938;53.546;9.954;2023-07-20T03:01:14;18.60;99.90
17639;DHT22;8938;53.546;9.954;2023-07-20T03:03:41;18.40;99.90
17639;DHT22;8938;53.546;9.954;2023-07-20T03:06:14;18.50;99.90
17639;DHT22;8938;53.546;9.954;2023-07-20T03:08:41;18.40;99.90
17639;DHT22;8938;53.546;9.954;2023-07-20T03:11:07;18.40;99.90
17639;DHT22;8938;53.546;9.954;2023-07-20T03:13:33;18.30;99.90
17639;DHT22;8938;53.546;9.954;2023-07-20T03:15:58;18.40;99.90
17639;DHT22;8938;53.546;9.954;2023-07-20T03:18:24;18.40;99.90
17639;DHT22;8938;53.546;9.954;2023-07-20T03:20:49;18.40;99.90
17639;DHT22;8938;53.546;9.954;2023-07-20T03:23:15;18.50;99.90
17639;DHT22;8938;53.546;9.954;2023-07-20T03:25:41;18.50;99.90
17639;DHT22;8938;53.546;9.954;2023-07-20T03:28:07;18.40;99.90
17639;DHT22;8938;53.546;9.954;2023-07-20T03:30:33;18.30;99.90
17639;DHT22;8938;53.546;9.954;2023-07-20T03:32:58;18.30;99.90
17639;DHT22;8938;53.546;9.954;2023-07-20T03:35:24;18.30;99.90
17639;DHT22;8938;53.546;9.954;2023-07-20T03:37:49;18.30;99.90
17639;DHT22;8938;53.546;9.954;2023-07-20T03:40:15;18.30;99.90
17639;DHT22;8938;53.546;9.954;2023-07-20T03:42:41;18.30;99.90
17639;DHT22;8938;53.546;9.954;2023-07-20T03:45:07;18.30;99.90
17639;DHT22;8938;53.546;9.954;2023-07-20T03:47:33;18.40;99.90
17639;DHT22;8938;53.546;9.954;2023-07-20T03:49:58;18.40;99.90
17639;DHT22;8938;53.546;9.954;2023-07-20T03:52:25;18.40;99.90
17639;DHT22;8938;53.546;9.954;2023-07-20T03:54:50;18.50;99.90
17639;DHT22;8938;53.546;9.954;2023-07-20T03:57:19;18.50;99.90
17639;DHT22;8938;53.546;9.954;2023-07-20T03:59:45;18.50;99.90
17639;DHT22;8938;53.546;9.954;2023-07-20T04:02:11;18.50;99.90
17639;DHT22;8938;53.546;9.954;2023-07-20T04:04:37;18.50;99.90
17639;DHT22;8938;53.546;9.954;2023-07-20T04:07:02;18.50;99.90
17639;DHT22;8938;53.546;9.954;2023-07-20T04:09:28;18.40;99.90
17639;DHT22;8938;53.546;9.954;2023-07-20T04:11:54;18.40;99.90
17639;DHT22;8938;53.546;9.954;2023-07-20T04:14:19;18.40;99.90
17639;DHT22;8938;53.546;9.954;2023-07-20T04:16:47;18.50;99.90
17639;DHT22;8938;53.546;9.954;2023-07-20T04:19:12;18.50;99.90
17639;DHT22;8938;53.546;9.954;2023-07-20T04:21:41;18.50;99.90
17639;DHT22;8938;53.546;9.954;2023-07-20T04:24:07;18.60;99.90
17639;DHT22;8938;53.546;9.954;2023-07-20T04:26:32;18.70;99.90
17639;DHT22;8938;53.546;9.954;2023-07-20T04:28:58;18.70;99.90
17639;DHT22;8938;53.546;9.954;2023-07-20T04:31:24;18.70;99.90
17639;DHT22;8938;53.546;9.954;2023-07-20T04:33:50;18.70;99.90
17639;DHT22;8938;53.546;9.954;2023-07-20T04:36:16;18.80;99.90
17639;DHT22;8938;53.546;9.954;2023-07-20T04:38:45;18.90;99.90
17639;DHT22;8938;53.546;9.954;2023-07-20T04:41:11;19.00;99.90
17639;DHT22;8938;53.546;9.954;2023-07-20T04:43:41;18.70;99.90
17639;DHT22;8938;53.546;9.954;2023-07-20T04:46:07;18.70;99.90
17639;DHT22;8938;53.546;9.954;2023-07-20T04:48:32;18.80;99.90
17639;DHT22;8938;53.546;9.954;2023-07-20T04:50:58;19.00;99.90
17639;DHT22;8938;53.546;9.954;2023-07-20T04:53:23;19.00;99.90
17639;DHT22;8938;53.546;9.954;2023-07-20T04:55:50;19.00;99.90
17639;DHT22;8938;53.546;9.954;2023-07-20T04:58:22;19.00;99.90
17639;DHT22;8938;53.546;9.954;2023-07-20T05:00:49;18.90;99.90
17639;DHT22;8938;53.546;9.954;2023-07-20T05:03:15;18.90;99.90
17639;DHT22;8938;53.546;9.954;2023-07-20T05:05:40;19.30;99.90
17639;DHT22;8938;53.546;9.954;2023-07-20T05:08:06;20.10;99.90
17639;DHT22;8938;53.546;9.954;2023-07-20T05:10:32;20.70;99.90
17639;DHT22;8938;53.546;9.954;2023-07-20T05:12:58;21.00;99.90
17639;DHT22;8938;53.546;9.954;2023-07-20T05:15:24;21.00;99.90
17639;DHT22;8938;53.546;9.954;2023-07-20T05:17:49;21.20;99.90
17639;DHT22;8938;53.546;9.954;2023-07-20T05:20:15;21.00;99.90
17639;DHT22;8938;53.546;9.954;2023-07-20T05:22:42;20.70;99.90
17639;DHT22;8938;53.546;9.954;2023-07-20T05:25:08;20.50;99.90
17639;DHT22;8938;53.546;9.954;2023-07-20T05:27:36;20.40;99.90
17639;DHT22;8938;53.546;9.954;2023-07-20T05:30:02;20.10;99.90
17639;DHT22;8938;53.546;9.954;2023-07-20T05:32:28;19.90;99.90
17639;DHT22;8938;53.546;9.954;2023-07-20T05:34:54;19.80;99.90
17639;DHT22;8938;53.546;9.954;2023-07-20T05:37:20;19.60;99.90
17639;DHT22;8938;53.546;9.954;2023-07-20T05:39:46;19.50;99.90
17639;DHT22;8938;53.546;9.954;2023-07-20T05:42:12;19.50;99.90
17639;DHT22;8938;53.546;9.954;2023-07-20T05:44:37;19.50;99.90
17639;DHT22;8938;53.546;9.954;2023-07-20T05:47:03;19.50;99.90
17639;DHT22;8938;53.546;9.954;2023-07-20T05:49:29;19.50;99.90
17639;DHT22;8938;53.546;9.954;2023-07-20T05:51:55;19.50;99.90
17639;DHT22;8938;53.546;9.954;2023-07-20T05:54:21;19.70;99.90
17639;DHT22;8938;53.546;9.954;2023-07-20T05:56:47;19.50;99.90
17639;DHT22;8938;53.546;9.954;2023-07-20T05:59:12;19.50;99.90
17639;DHT22;8938;53.546;9.954;2023-07-20T06:01:38;19.50;99.90
17639;DHT22;8938;53.546;9.954;2023-07-20T06:04:04;19.50;99.90
17639;DHT22;8938;53.546;9.954;2023-07-20T06:06:29;19.50;99.90
17639;DHT22;8938;53.546;9.954;2023-07-20T06:08:55;19.60;99.90
17639;DHT22;8938;53.546;9.954;2023-07-20T06:11:20;19.80;99.90
17639;DHT22;8938;53.546;9.954;2023-07-20T06:13:46;20.10;99.90
17639;DHT22;8938;53.546;9.954;2023-07-20T06:16:11;20.20;99.90
17639;DHT22;8938;53.546;9.954;2023-07-20T06:18:37;20.20;99.90
17639;DHT22;8938;53.546;9.954;2023-07-20T06:21:03;20.40;99.90
17639;DHT22;8938;53.546;9.954;2023-07-20T06:30:12;20.50;99.90
17639;DHT22;8938;53.546;9.954;2023-07-20T06:32:38;20.60;99.90
17639;DHT22;8938;53.546;9.954;2023-07-20T06:35:05;20.70;99.90
17639;DHT22;8938;53.546;9.954;2023-07-20T06:37:30;20.80;99.90
17639;DHT22;8938;53.546;9.954;2023-07-20T06:39:56;20.80;99.90
17639;DHT22;8938;53.546;9.954;2023-07-20T06:42:21;20.70;99.90
17639;DHT22;8938;53.546;9.954;2023-07-20T06:44:47;20.60;99.90
17639;DHT22;8938;53.546;9.954;2023-07-20T06:47:13;20.50;99.90
17639;DHT22;8938;53.546;9.954;2023-07-20T06:49:38;20.50;99.90
17639;DHT22;8938;53.546;9.954;2023-07-20T06:52:04;20.50;99.90
17639;DHT22;8938;53.546;9.954;2023-07-20T06:54:30;20.50;99.90
17639;DHT22;8938;53.546;9.954;2023-07-20T06:56:55;20.50;99.90
17639;DHT22;8938;53.546;9.954;2023-07-20T06:59:21;20.50;99.90
17639;DHT22;8938;53.546;9.954;2023-07-20T07:01:46;20.50;99.90
17639;DHT22;8938;53.546;9.954;2023-07-20T07:04:12;20.60;99.90
17639;DHT22;8938;53.546;9.954;2023-07-20T07:06:38;20.70;99.90
17639;DHT22;8938;53.546;9.954;2023-07-20T07:09:03;20.70;99.90
17639;DHT22;8938;53.546;9.954;2023-07-20T07:11:29;20.80;99.90
17639;DHT22;8938;53.546;9.954;2023-07-20T07:13:55;20.80;99.90
17639;DHT22;8938;53.546;9.954;2023-07-20T07:16:20;20.80;99.90
17639;DHT22;8938;53.546;9.954;2023-07-20T07:18:46;20.80;99.90
17639;DHT22;8938;53.546;9.954;2023-07-20T07:21:11;20.80;99.90
17639;DHT22;8938;53.546;9.954;2023-07-20T07:23:40;20.90;99.90
17639;DHT22;8938;53.546;9.954;2023-07-20T07:26:06;21.10;99.90
17639;DHT22;8938;53.546;9.954;2023-07-20T07:28:31;21.10;99.90
17639;DHT22;8938;53.546;9.954;2023-07-20T07:30:59;21.20;99.90
17639;DHT22;8938;53.546;9.954;2023-07-20T07:33:26;21.20;99.90
17639;DHT22;8938;53.546;9.954;2023-07-20T07:35:52;21.30;99.90
17639;DHT22;8938;53.546;9.954;2023-07-20T07:38:20;21.20;99.90
17639;DHT22;8938;53.546;9.954;2023-07-20T07:40:46;21.10;99.90
17639;DHT22;8938;53.546;9.954;2023-07-20T07:43:12;21.10;99.90
17639;DHT22;8938;53.546;9.954;2023-07-20T07:45:39;21.00;99.90
17639;DHT22;8938;53.546;9.954;2023-07-20T07:48:05;21.00;99.90
17639;DHT22;8938;53.546;9.954;2023-07-20T07:50:31;21.10;99.90
17639;DHT22;8938;53.546;9.954;2023-07-20T07:52:57;21.20;99.90
17639;DHT22;8938;53.546;9.954;2023-07-20T07:55:24;21.20;99.90
17639;DHT22;8938;53.546;9.954;2023-07-20T07:57:49;21.30;99.90
17639;DHT22;8938;53.546;9.954;2023-07-20T08:00:16;21.50;99.90
17639;DHT22;8938;53.546;9.954;2023-07-20T08:02:47;21.50;99.90
17639;DHT22;8938;53.546;9.954;2023-07-20T08:05:16;21.50;99.90
17639;DHT22;8938;53.546;9.954;2023-07-20T08:07:41;21.60;99.90
17639;DHT22;8938;53.546;9.954;2023-07-20T08:10:08;21.90;99.90
17639;DHT22;8938;53.546;9.954;2023-07-20T08:12:33;21.90;99.90
17639;DHT22;8938;53.546;9.954;2023-07-20T08:14:59;21.90;99.90
17639;DHT22;8938;53.546;9.954;2023-07-20T08:17:25;21.80;99.90
17639;DHT22;8938;53.546;9.954;2023-07-20T08:19:50;21.70;99.90
17639;DHT22;8938;53.546;9.954;2023-07-20T08:22:16;21.50;99.90
17639;DHT22;8938;53.546;9.954;2023-07-20T08:24:42;21.50;99.90
17639;DHT22;8938;53.546;9.954;2023-07-20T08:27:08;21.60;99.90
17639;DHT22;8938;53.546;9.954;2023-07-20T08:29:34;21.60;99.90
17639;DHT22;8938;53.546;9.954;2023-07-20T08:32:00;21.70;99.90
17639;DHT22;8938;53.546;9.954;2023-07-20T08:34:25;21.90;99.90
17639;DHT22;8938;53.546;9.954;2023-07-20T08:36:51;22.20;99.90
17639;DHT22;8938;53.546;9.954;2023-07-20T08:39:16;22.50;99.90
17639;DHT22;8938;53.546;9.954;2023-07-20T08:41:43;22.90;99.90
17639;DHT22;8938;53.546;9.954;2023-07-20T08:44:09;22.90;99.90
17639;DHT22;8938;53.546;9.954;2023-07-20T08:46:37;22.70;99.90
17639;DHT22;8938;53.546;9.954;2023-07-20T08:49:03;22.40;99.90
17639;DHT22;8938;53.546;9.954;2023-07-20T08:51:30;22.10;99.90
17639;DHT22;8938;53.546;9.954;2023-07-20T08:53:56;21.90;99.90
17639;DHT22;8938;53.546;9.954;2023-07-20T08:56:24;21.80;99.90
17639;DHT22;8938;53.546;9.954;2023-07-20T08:58:52;21.80;99.90
17639;DHT22;8938;53.546;9.954;2023-07-20T09:01:19;21.80;99.90
17639;DHT22;8938;53.546;9.954;2023-07-20T09:03:45;22.00;99.90
17639;DHT22;8938;53.546;9.954;2023-07-20T09:06:12;22.00;99.90
17639;DHT22;8938;53.546;9.954;2023-07-20T09:08:41;22.10;99.90
17639;DHT22;8938;53.546;9.954;2023-07-20T09:11:07;22.20;99.90
17639;DHT22;8938;53.546;9.954;2023-07-20T09:13:34;22.40;99.90
17639;DHT22;8938;53.546;9.954;2023-07-20T09:15:59;22.70;99.90
17639;DHT22;8938;53.546;9.954;2023-07-20T09:18:30;22.80;99.90
17639;DHT22;8938;53.546;9.954;2023-07-20T09:21:02;22.60;99.90
17639;DHT22;8938;53.546;9.954;2023-07-20T09:23:35;22.70;99.90
17639;DHT22;8938;53.546;9.954;2023-07-20T09:26:09;23.70;99.90
17639;DHT22;8938;53.546;9.954;2023-07-20T09:28:52;24.20;99.90
17639;DHT22;8938;53.546;9.954;2023-07-20T09:31:19;24.20;98.90
17639;DHT22;8938;53.546;9.954;2023-07-20T09:33:46;23.70;99.10
17639;DHT22;8938;53.546;9.954;2023-07-20T09:36:12;22.90;99.90
17639;DHT22;8938;53.546;9.954;2023-07-20T09:38:39;22.30;99.90
17639;DHT22;8938;53.546;9.954;2023-07-20T09:41:05;21.70;99.90
17639;DHT22;8938;53.546;9.954;2023-07-20T09:43:34;21.40;99.90
17639;DHT22;8938;53.546;9.954;2023-07-20T09:46:00;21.20;99.90
17639;DHT22;8938;53.546;9.954;2023-07-20T09:48:26;21.10;99.90
17639;DHT22;8938;53.546;9.954;2023-07-20T09:50:52;21.30;99.90
17639;DHT22;8938;53.546;9.954;2023-07-20T09:53:19;21.70;99.90
17639;DHT22;8938;53.546;9.954;2023-07-20T09:55:46;23.20;99.90
17639;DHT22;8938;53.546;9.954;2023-07-20T09:58:13;24.80;99.90
17639;DHT22;8938;53.546;9.954;2023-07-20T10:00:39;26.30;99.90
17639;DHT22;8938;53.546;9.954;2023-07-20T10:03:06;27.50;98.90
17639;DHT22;8938;53.546;9.954;2023-07-20T10:05:34;28.70;97.70
17639;DHT22;8938;53.546;9.954;2023-07-20T10:08:02;29.70;95.50
17639;DHT22;8938;53.546;9.954;2023-07-20T10:10:28;29.70;92.30
17639;DHT22;8938;53.546;9.954;2023-07-20T10:12:54;28.90;91.60
17639;DHT22;8938;53.546;9.954;2023-07-20T10:15:40;28.10;92.50
17639;DHT22;8938;53.546;9.954;2023-07-20T10:20:40;26.30;92.80
17639;DHT22;8938;53.546;9.954;2023-07-20T10:23:08;25.40;94.30
17639;DHT22;8938;53.546;9.954;2023-07-20T10:25:35;26.00;95.40
17639;DHT22;8938;53.546;9.954;2023-07-20T10:28:06;26.90;95.00
17639;DHT22;8938;53.546;9.954;2023-07-20T10:30:34;27.60;94.20
17639;DHT22;8938;53.546;9.954;2023-07-20T10:33:01;28.10;93.80
17639;DHT22;8938;53.546;9.954;2023-07-20T10:35:28;28.60;91.60
17639;DHT22;8938;53.546;9.954;2023-07-20T10:37:55;28.70;91.40
17639;DHT22;8938;53.546;9.954;2023-07-20T10:40:34;28.00;90.90
17639;DHT22;8938;53.546;9.954;2023-07-20T10:43:07;27.00;91.10
17639;DHT22;8938;53.546;9.954;2023-07-20T10:48:05;25.00;93.10
17639;DHT22;8938;53.546;9.954;2023-07-20T10:50:32;24.30;93.70
17639;DHT22;8938;53.546;9.954;2023-07-20T10:53:16;23.60;94.70
17639;DHT22;8938;53.546;9.954;2023-07-20T10:55:42;23.40;95.80
17639;DHT22;8938;53.546;9.954;2023-07-20T10:58:14;23.50;96.50
17639;DHT22;8938;53.546;9.954;2023-07-20T11:00:57;24.10;96.90
17639;DHT22;8938;53.546;9.954;2023-07-20T11:03:35;24.60;96.90
17639;DHT22;8938;53.546;9.954;2023-07-20T11:09:03;24.30;96.30
17639;DHT22;8938;53.546;9.954;2023-07-20T11:11:30;23.90;97.10
17639;DHT22;8938;53.546;9.954;2023-07-20T11:14:01;23.40;96.70
17639;DHT22;8938;53.546;9.954;2023-07-20T11:16:46;23.00;97.00
17639;DHT22;8938;53.546;9.954;2023-07-20T11:19:20;22.80;97.70
17639;DHT22;8938;53.546;9.954;2023-07-20T11:21:49;22.60;98.20
17639;DHT22;8938;53.546;9.954;2023-07-20T11:24:15;22.40;98.60
17639;DHT22;8938;53.546;9.954;2023-07-20T11:26:46;22.30;98.50
17639;DHT22;8938;53.546;9.954;2023-07-20T11:29:12;22.30;98.70
17639;DHT22;8938;53.546;9.954;2023-07-20T11:31:39;22.40;98.50
17639;DHT22;8938;53.546;9.954;2023-07-20T11:34:06;22.80;98.10
17639;DHT22;8938;53.546;9.954;2023-07-20T11:36:33;22.80;97.80
17639;DHT22;8938;53.546;9.954;2023-07-20T11:38:59;22.90;97.40
17639;DHT22;8938;53.546;9.954;2023-07-20T11:41:25;23.00;97.10
17639;DHT22;8938;53.546;9.954;2023-07-20T11:43:52;23.00;96.90
17639;DHT22;8938;53.546;9.954;2023-07-20T11:46:17;23.20;97.20
17639;DHT22;8938;53.546;9.954;2023-07-20T11:48:43;23.30;97.00
17639;DHT22;8938;53.546;9.954;2023-07-20T11:51:16;23.40;96.80
17639;DHT22;8938;53.546;9.954;2023-07-20T11:53:44;23.30;96.60
17639;DHT22;8938;53.546;9.954;2023-07-20T11:56:11;23.40;96.60
17639;DHT22;8938;53.546;9.954;2023-07-20T11:58:42;23.40;97.00
17639;DHT22;8938;53.546;9.954;2023-07-20T12:01:08;23.70;96.70
17639;DHT22;8938;53.546;9.954;2023-07-20T12:03:34;23.90;96.70
17639;DHT22;8938;53.546;9.954;2023-07-20T12:06:07;24.40;96.50
17639;DHT22;8938;53.546;9.954;2023-07-20T12:08:33;24.40;95.40
17639;DHT22;8938;53.546;9.954;2023-07-20T12:10:59;24.40;95.30
17639;DHT22;8938;53.546;9.954;2023-07-20T12:13:44;24.30;95.40
17639;DHT22;8938;53.546;9.954;2023-07-20T12:16:16;24.40;95.70
17639;DHT22;8938;53.546;9.954;2023-07-20T12:18:43;24.40;95.70
17639;DHT22;8938;53.546;9.954;2023-07-20T12:21:09;24.40;95.80
17639;DHT22;8938;53.546;9.954;2023-07-20T12:23:36;24.10;95.80
17639;DHT22;8938;53.546;9.954;2023-07-20T12:26:02;23.90;95.90
17639;DHT22;8938;53.546;9.954;2023-07-20T12:28:29;23.80;95.50
17639;DHT22;8938;53.546;9.954;2023-07-20T12:30:55;23.60;95.30
17639;DHT22;8938;53.546;9.954;2023-07-20T12:33:24;23.40;95.60
17639;DHT22;8938;53.546;9.954;2023-07-20T12:35:49;23.50;94.90
17639;DHT22;8938;53.546;9.954;2023-07-20T12:38:16;23.50;94.70
17639;DHT22;8938;53.546;9.954;2023-07-20T12:40:42;23.60;94.50
17639;DHT22;8938;53.546;9.954;2023-07-20T12:43:08;23.50;94.80
17639;DHT22;8938;53.546;9.954;2023-07-20T12:45:33;23.70;94.80
17639;DHT22;8938;53.546;9.954;2023-07-20T12:47:59;23.80;95.00
17639;DHT22;8938;53.546;9.954;2023-07-20T12:50:24;24.00;94.90
17639;DHT22;8938;53.546;9.954;2023-07-20T12:52:50;24.00;95.00
17639;DHT22;8938;53.546;9.954;2023-07-20T12:55:15;24.20;95.40
17639;DHT22;8938;53.546;9.954;2023-07-20T12:57:41;24.30;95.60
17639;DHT22;8938;53.546;9.954;2023-07-20T13:00:10;24.30;95.70
17639;DHT22;8938;53.546;9.954;2023-07-20T13:02:36;24.40;95.70
17639;DHT22;8938;53.546;9.954;2023-07-20T13:05:02;24.40;95.30
17639;DHT22;8938;53.546;9.954;2023-07-20T13:07:32;24.40;95.10
17639;DHT22;8938;53.546;9.954;2023-07-20T13:09:59;24.40;94.20
17639;DHT22;8938;53.546;9.954;2023-07-20T13:12:28;24.40;93.70
17639;DHT22;8938;53.546;9.954;2023-07-20T13:14:55;24.40;93.10
17639;DHT22;8938;53.546;9.954;2023-07-20T13:17:21;24.30;92.90
17639;DHT22;8938;53.546;9.954;2023-07-20T13:19:47;24.20;92.60
17639;DHT22;8938;53.546;9.954;2023-07-20T13:22:12;24.10;92.50
17639;DHT22;8938;53.546;9.954;2023-07-20T13:24:40;24.20;92.20
17639;DHT22;8938;53.546;9.954;2023-07-20T13:27:06;24.30;92.50
17639;DHT22;8938;53.546;9.954;2023-07-20T13:29:31;24.40;92.50
17639;DHT22;8938;53.546;9.954;2023-07-20T13:31:58;24.50;92.60
17639;DHT22;8938;53.546;9.954;2023-07-20T13:34:26;24.80;92.60
17639;DHT22;8938;53.546;9.954;2023-07-20T13:36:52;25.10;91.70
17639;DHT22;8938;53.546;9.954;2023-07-20T13:39:17;25.30;91.20
17639;DHT22;8938;53.546;9.954;2023-07-20T13:41:45;25.30;91.10
17639;DHT22;8938;53.546;9.954;2023-07-20T13:44:10;25.20;90.70
17639;DHT22;8938;53.546;9.954;2023-07-20T13:46:36;25.10;90.70
17639;DHT22;8938;53.546;9.954;2023-07-20T13:49:01;25.10;90.80
17639;DHT22;8938;53.546;9.954;2023-07-20T13:51:27;25.20;91.10
17639;DHT22;8938;53.546;9.954;2023-07-20T13:53:52;25.40;91.20
17639;DHT22;8938;53.546;9.954;2023-07-20T13:56:18;25.50;91.10
17639;DHT22;8938;53.546;9.954;2023-07-20T13:58:43;25.30;91.30
17639;DHT22;8938;53.546;9.954;2023-07-20T14:01:09;25.20;91.50
17639;DHT22;8938;53.546;9.954;2023-07-20T14:03:34;25.10;91.30
17639;DHT22;8938;53.546;9.954;2023-07-20T14:06:00;25.00;91.00
17639;DHT22;8938;53.546;9.954;2023-07-20T14:08:25;24.80;92.50
17639;DHT22;8938;53.546;9.954;2023-07-20T14:10:51;24.70;90.60
17639;DHT22;8938;53.546;9.954;2023-07-20T14:13:16;24.40;90.10
17639;DHT22;8938;53.546;9.954;2023-07-20T14:15:42;24.00;90.50
17639;DHT22;8938;53.546;9.954;2023-07-20T14:18:08;24.00;91.00
17639;DHT22;8938;53.546;9.954;2023-07-20T14:20:33;24.00;91.40
17639;DHT22;8938;53.546;9.954;2023-07-20T14:22:59;24.20;91.50
17639;DHT22;8938;53.546;9.954;2023-07-20T14:25:25;24.20;91.40
17639;DHT22;8938;53.546;9.954;2023-07-20T14:27:50;24.20;91.60
17639;DHT22;8938;53.546;9.954;2023-07-20T14:30:16;24.20;91.30
17639;DHT22;8938;53.546;9.954;2023-07-20T14:32:41;24.30;91.30
17639;DHT22;8938;53.546;9.954;2023-07-20T14:35:07;24.30;91.40
17639;DHT22;8938;53.546;9.954;2023-07-20T14:37:34;24.20;91.30
17639;DHT22;8938;53.546;9.954;2023-07-20T14:39:59;24.10;90.70
17639;DHT22;8938;53.546;9.954;2023-07-20T14:42:26;24.10;90.60
17639;DHT22;8938;53.546;9.954;2023-07-20T14:44:51;24.10;90.90
17639;DHT22;8938;53.546;9.954;2023-07-20T14:47:17;24.10;91.10
17639;DHT22;8938;53.546;9.954;2023-07-20T14:49:43;23.90;91.20
17639;DHT22;8938;53.546;9.954;2023-07-20T14:52:09;23.80;91.40
17639;DHT22;8938;53.546;9.954;2023-07-20T14:54:35;23.70;91.50
17639;DHT22;8938;53.546;9.954;2023-07-20T14:57:00;23.70;91.70
17639;DHT22;8938;53.546;9.954;2023-07-20T14:59:26;23.70;91.40
17639;DHT22;8938;53.546;9.954;2023-07-20T15:01:51;23.90;91.60
17639;DHT22;8938;53.546;9.954;2023-07-20T15:04:18;24.00;91.60
17639;DHT22;8938;53.546;9.954;2023-07-20T15:06:43;24.10;91.60
17639;DHT22;8938;53.546;9.954;2023-07-20T15:09:09;24.00;91.70
17639;DHT22;8938;53.546;9.954;2023-07-20T15:11:36;24.00;92.00
17639;DHT22;8938;53.546;9.954;2023-07-20T15:14:02;24.10;91.40
17639;DHT22;8938;53.546;9.954;2023-07-20T15:16:28;23.90;91.70
17639;DHT22;8938;53.546;9.954;2023-07-20T15:18:53;23.80;91.90
17639;DHT22;8938;53.546;9.954;2023-07-20T15:21:19;23.70;92.20
17639;DHT22;8938;53.546;9.954;2023-07-20T15:23:44;23.70;92.20
17639;DHT22;8938;53.546;9.954;2023-07-20T15:26:10;23.50;92.50
17639;DHT22;8938;53.546;9.954;2023-07-20T15:28:39;23.60;92.80
17639;DHT22;8938;53.546;9.954;2023-07-20T15:31:06;23.70;92.50
17639;DHT22;8938;53.546;9.954;2023-07-20T15:33:31;23.90;92.10
17639;DHT22;8938;53.546;9.954;2023-07-20T15:35:57;23.80;91.60
17639;DHT22;8938;53.546;9.954;2023-07-20T15:38:23;23.70;91.60
17639;DHT22;8938;53.546;9.954;2023-07-20T15:40:48;23.60;91.90
17639;DHT22;8938;53.546;9.954;2023-07-20T15:43:17;23.50;92.10
17639;DHT22;8938;53.546;9.954;2023-07-20T15:45:47;23.50;92.20
17639;DHT22;8938;53.546;9.954;2023-07-20T15:48:14;23.40;92.30
17639;DHT22;8938;53.546;9.954;2023-07-20T15:50:39;23.40;92.00
17639;DHT22;8938;53.546;9.954;2023-07-20T15:53:05;23.30;92.10
17639;DHT22;8938;53.546;9.954;2023-07-20T15:55:30;23.30;92.20
17639;DHT22;8938;53.546;9.954;2023-07-20T15:57:56;23.30;92.30
17639;DHT22;8938;53.546;9.954;2023-07-20T16:00:22;23.40;92.50
17639;DHT22;8938;53.546;9.954;2023-07-20T16:02:48;23.40;92.20